sensor_id;sensor_type;location;lat;lon;timestamp;P1;durP1;ratioP1;P2;durP2;ratioP2
20627;SDS011;10473;42.734;24.258;2023-12-20T00:02:05;0.10;;;0.10;;
20627;SDS011;10473;42.734;24.258;2023-12-20T00:04:33;0.40;;;0.23;;
20627;SDS011;10473;42.734;24.258;2023-12-20T00:07:00;0.20;;;0.20;;
20627;SDS011;10473;42.734;24.258;2023-12-20T00:09:30;0.30;;;0.30;;
20627;SDS011;10473;42.734;24.258;2023-12-20T00:11:57;0.97;;;0.97;;
20627;SDS011;10473;42.734;24.258;2023-12-20T00:14:25;0.33;;;0.20;;
20627;SDS011;10473;42.734;24.258;2023-12-20T00:16:53;1.70;;;1.60;;
20627;SDS011;10473;42.734;24.258;2023-12-20T00:19:20;0.70;;;0.70;;
20627;SDS011;10473;42.734;24.258;2023-12-20T00:21:48;0.00;;;0.00;;
20627;SDS011;10473;42.734;24.258;2023-12-20T00:24:16;0.57;;;0.20;;
20627;SDS011;10473;42.734;24.258;2023-12-20T00:26:45;0.20;;;0.20;;
20627;SDS011;10473;42.734;24.258;2023-12-20T00:29:13;0.13;;;0.13;;
20627;SDS011;10473;42.734;24.258;2023-12-20T00:31:40;0.37;;;0.33;;
20627;SDS011;10473;42.734;24.258;2023-12-20T00:34:08;0.10;;;0.10;;
20627;SDS011;10473;42.734;24.258;2023-12-20T00:36:36;0.10;;;0.00;;
20627;SDS011;10473;42.734;24.258;2023-12-20T00:39:04;0.50;;;0.50;;
20627;SDS011;10473;42.734;24.258;2023-12-20T00:41:32;0.00;;;0.00;;
20627;SDS011;10473;42.734;24.258;2023-12-20T00:44:01;0.20;;;0.20;;
20627;SDS011;10473;42.734;24.258;2023-12-20T00:46:29;0.00;;;0.00;;
20627;SDS011;10473;42.734;24.258;2023-12-20T00:48:57;0.00;;;0.00;;
20627;SDS011;10473;42.734;24.258;2023-12-20T00:51:24;0.10;;;0.10;;
20627;SDS011;10473;42.734;24.258;2023-12-20T00:53:52;0.00;;;0.00;;
20627;SDS011;10473;42.734;24.258;2023-12-20T00:56:20;0.00;;;0.00;;
20627;SDS011;10473;42.734;24.258;2023-12-20T00:58:48;0.10;;;0.10;;
20627;SDS011;10473;42.734;24.258;2023-12-20T01:01:17;0.07;;;0.07;;
20627;SDS011;10473;42.734;24.258;2023-12-20T01:03:45;0.00;;;0.00;;
20627;SDS011;10473;42.734;24.258;2023-12-20T01:06:12;0.50;;;0.47;;
20627;SDS011;10473;42.734;24.258;2023-12-20T01:08:41;0.10;;;0.10;;
20627;SDS011;10473;42.734;24.258;2023-12-20T01:11:09;0.10;;;0.10;;
20627;SDS011;10473;42.734;24.258;2023-12-20T01:13:37;0.43;;;0.43;;
20627;SDS011;10473;42.734;24.258;2023-12-20T01:16:04;0.77;;;0.77;;
20627;SDS011;10473;42.734;24.258;2023-12-20T01:18:34;0.30;;;0.30;;
20627;SDS011;10473;42.734;24.258;2023-12-20T01:21:02;0.07;;;0.07;;
20627;SDS011;10473;42.734;24.258;2023-12-20T01:23:30;0.07;;;0.07;;
20627;SDS011;10473;42.734;24.258;2023-12-20T01:25:58;0.00;;;0.00;;
20627;SDS011;10473;42.734;24.258;2023-12-20T01:28:26;0.00;;;0.00;;
20627;SDS011;10473;42.734;24.258;2023-12-20T01:30:54;0.00;;;0.00;;
20627;SDS011;10473;42.734;24.258;2023-12-20T01:33:21;0.00;;;0.00;;
20627;SDS011;10473;42.734;24.258;2023-12-20T01:35:51;0.03;;;0.03;;
20627;SDS011;10473;42.734;24.258;2023-12-20T01:38:18;0.00;;;0.00;;
20627;SDS011;10473;42.734;24.258;2023-12-20T01:40:46;0.10;;;0.10;;
20627;SDS011;10473;42.734;24.258;2023-12-20T01:43:14;0.00;;;0.00;;
20627;SDS011;10473;42.734;24.258;2023-12-20T01:45:42;0.00;;;0.00;;
20627;SDS011;10473;42.734;24.258;2023-12-20T01:48:09;0.10;;;0.10;;
20627;SDS011;10473;42.734;24.258;2023-12-20T01:50:38;0.13;;;0.13;;
20627;SDS011;10473;42.734;24.258;2023-12-20T01:53:08;0.00;;;0.00;;
20627;SDS011;10473;42.734;24.258;2023-12-20T01:55:38;0.20;;;0.20;;
20627;SDS011;10473;42.734;24.258;2023-12-20T01:58:07;0.00;;;0.00;;
20627;SDS011;10473;42.734;24.258;2023-12-20T02:00:37;0.00;;;0.00;;
20627;SDS011;10473;42.734;24.258;2023-12-20T02:03:05;0.00;;;0.00;;
20627;SDS011;10473;42.734;24.258;2023-12-20T02:05:34;0.00;;;0.00;;
20627;SDS011;10473;42.734;24.258;2023-12-20T02:08:03;0.00;;;0.00;;
20627;SDS011;10473;42.734;24.258;2023-12-20T02:10:33;0.00;;;0.00;;
20627;SDS011;10473;42.734;24.258;2023-12-20T02:13:01;0.00;;;0.00;;
20627;SDS011;10473;42.734;24.258;2023-12-20T02:15:28;0.20;;;0.20;;
20627;SDS011;10473;42.734;24.258;2023-12-20T02:17:56;0.20;;;0.20;;
20627;SDS011;10473;42.734;24.258;2023-12-20T02:20:24;0.10;;;0.10;;
20627;SDS011;10473;42.734;24.258;2023-12-20T02:22:53;0.07;;;0.07;;
20627;SDS011;10473;42.734;24.258;2023-12-20T02:25:21;0.00;;;0.00;;
20627;SDS011;10473;42.734;24.258;2023-12-20T02:27:48;0.00;;;0.00;;
20627;SDS011;10473;42.734;24.258;2023-12-20T02:30:17;0.00;;;0.00;;
20627;SDS011;10473;42.734;24.258;2023-12-20T02:32:44;0.27;;;0.27;;
20627;SDS011;10473;42.734;24.258;2023-12-20T02:35:12;0.10;;;0.10;;
20627;SDS011;10473;42.734;24.258;2023-12-20T02:37:40;1.33;;;1.30;;
20627;SDS011;10473;42.734;24.258;2023-12-20T02:40:09;0.10;;;0.10;;
20627;SDS011;10473;42.734;24.258;2023-12-20T02:42:37;0.00;;;0.00;;
20627;SDS011;10473;42.734;24.258;2023-12-20T02:45:05;0.10;;;0.10;;
20627;SDS011;10473;42.734;24.258;2023-12-20T02:47:34;0.00;;;0.00;;
20627;SDS011;10473;42.734;24.258;2023-12-20T02:50:02;0.00;;;0.00;;
20627;SDS011;10473;42.734;24.258;2023-12-20T02:52:30;0.10;;;0.10;;
20627;SDS011;10473;42.734;24.258;2023-12-20T02:54:57;0.10;;;0.10;;
20627;SDS011;10473;42.734;24.258;2023-12-20T02:57:26;0.00;;;0.00;;
20627;SDS011;10473;42.734;24.258;2023-12-20T02:59:54;0.83;;;0.67;;
20627;SDS011;10473;42.734;24.258;2023-12-20T03:02:21;0.43;;;0.43;;
20627;SDS011;10473;42.734;24.258;2023-12-20T03:04:49;0.20;;;0.20;;
20627;SDS011;10473;42.734;24.258;2023-12-20T03:07:17;0.00;;;0.00;;
20627;SDS011;10473;42.734;24.258;2023-12-20T03:09:44;0.13;;;0.13;;
20627;SDS011;10473;42.734;24.258;2023-12-20T03:12:12;0.27;;;0.27;;
20627;SDS011;10473;42.734;24.258;2023-12-20T03:14:41;0.00;;;0.00;;
20627;SDS011;10473;42.734;24.258;2023-12-20T03:17:10;0.10;;;0.10;;
20627;SDS011;10473;42.734;24.258;2023-12-20T03:19:38;0.00;;;0.00;;
20627;SDS011;10473;42.734;24.258;2023-12-20T03:22:05;0.20;;;0.20;;
20627;SDS011;10473;42.734;24.258;2023-12-20T03:24:33;0.10;;;0.10;;
20627;SDS011;10473;42.734;24.258;2023-12-20T03:27:01;0.00;;;0.00;;
20627;SDS011;10473;42.734;24.258;2023-12-20T03:29:28;0.40;;;0.10;;
20627;SDS011;10473;42.734;24.258;2023-12-20T03:31:57;0.10;;;0.10;;
20627;SDS011;10473;42.734;24.258;2023-12-20T03:34:26;0.50;;;0.37;;
20627;SDS011;10473;42.734;24.258;2023-12-20T03:36:55;0.43;;;0.43;;
20627;SDS011;10473;42.734;24.258;2023-12-20T03:39:22;0.10;;;0.10;;
20627;SDS011;10473;42.734;24.258;2023-12-20T03:41:50;0.40;;;0.40;;
20627;SDS011;10473;42.734;24.258;2023-12-20T03:44:18;0.73;;;0.73;;
20627;SDS011;10473;42.734;24.258;2023-12-20T03:46:46;0.10;;;0.10;;
20627;SDS011;10473;42.734;24.258;2023-12-20T03:49:16;0.30;;;0.30;;
20627;SDS011;10473;42.734;24.258;2023-12-20T03:51:44;1.60;;;0.87;;
20627;SDS011;10473;42.734;24.258;2023-12-20T03:54:12;0.20;;;0.20;;
20627;SDS011;10473;42.734;24.258;2023-12-20T03:56:39;0.10;;;0.10;;
20627;SDS011;10473;42.734;24.258;2023-12-20T03:59:07;1.30;;;1.20;;
20627;SDS011;10473;42.734;24.258;2023-12-20T04:01:35;0.30;;;0.30;;
20627;SDS011;10473;42.734;24.258;2023-12-20T04:04:03;0.00;;;0.00;;
20627;SDS011;10473;42.734;24.258;2023-12-20T04:06:32;0.40;;;0.40;;
20627;SDS011;10473;42.734;24.258;2023-12-20T04:08:59;0.10;;;0.10;;
20627;SDS011;10473;42.734;24.258;2023-12-20T04:11:30;0.00;;;0.00;;
20627;SDS011;10473;42.734;24.258;2023-12-20T04:13:59;0.30;;;0.27;;
20627;SDS011;10473;42.734;24.258;2023-12-20T04:16:27;0.30;;;0.30;;
20627;SDS011;10473;42.734;24.258;2023-12-20T04:18:56;0.00;;;0.00;;
20627;SDS011;10473;42.734;24.258;2023-12-20T04:21:24;0.50;;;0.23;;
20627;SDS011;10473;42.734;24.258;2023-12-20T04:23:53;1.17;;;1.07;;
20627;SDS011;10473;42.734;24.258;2023-12-20T04:26:21;1.03;;;0.63;;
20627;SDS011;10473;42.734;24.258;2023-12-20T04:28:48;0.60;;;0.60;;
20627;SDS011;10473;42.734;24.258;2023-12-20T04:31:16;4.80;;;1.40;;
20627;SDS011;10473;42.734;24.258;2023-12-20T04:33:44;0.97;;;0.97;;
20627;SDS011;10473;42.734;24.258;2023-12-20T04:36:11;0.73;;;0.73;;
20627;SDS011;10473;42.734;24.258;2023-12-20T04:38:39;0.43;;;0.20;;
20627;SDS011;10473;42.734;24.258;2023-12-20T04:41:08;1.17;;;1.10;;
20627;SDS011;10473;42.734;24.258;2023-12-20T04:43:36;2.33;;;2.03;;
20627;SDS011;10473;42.734;24.258;2023-12-20T04:46:03;1.47;;;1.27;;
20627;SDS011;10473;42.734;24.258;2023-12-20T04:48:31;0.40;;;0.33;;
20627;SDS011;10473;42.734;24.258;2023-12-20T04:50:59;0.10;;;0.10;;
20627;SDS011;10473;42.734;24.258;2023-12-20T04:53:26;0.43;;;0.43;;
20627;SDS011;10473;42.734;24.258;2023-12-20T04:55:54;0.10;;;0.10;;
20627;SDS011;10473;42.734;24.258;2023-12-20T04:58:25;0.10;;;0.10;;
20627;SDS011;10473;42.734;24.258;2023-12-20T05:00:53;0.77;;;0.67;;
20627;SDS011;10473;42.734;24.258;2023-12-20T05:03:21;1.80;;;1.63;;
20627;SDS011;10473;42.734;24.258;2023-12-20T05:05:48;0.20;;;0.20;;
20627;SDS011;10473;42.734;24.258;2023-12-20T05:08:16;0.00;;;0.00;;
20627;SDS011;10473;42.734;24.258;2023-12-20T05:10:44;0.00;;;0.00;;
20627;SDS011;10473;42.734;24.258;2023-12-20T05:13:11;0.40;;;0.40;;
20627;SDS011;10473;42.734;24.258;2023-12-20T05:15:40;0.00;;;0.00;;
20627;SDS011;10473;42.734;24.258;2023-12-20T05:18:08;0.10;;;0.10;;
20627;SDS011;10473;42.734;24.258;2023-12-20T05:20:36;0.90;;;0.33;;
20627;SDS011;10473;42.734;24.258;2023-12-20T05:23:03;0.10;;;0.10;;
20627;SDS011;10473;42.734;24.258;2023-12-20T05:25:31;1.50;;;1.40;;
20627;SDS011;10473;42.734;24.258;2023-12-20T05:27:59;3.70;;;1.30;;
20627;SDS011;10473;42.734;24.258;2023-12-20T05:30:27;0.37;;;0.37;;
20627;SDS011;10473;42.734;24.258;2023-12-20T05:32:56;0.73;;;0.73;;
20627;SDS011;10473;42.734;24.258;2023-12-20T05:35:23;3.87;;;1.90;;
20627;SDS011;10473;42.734;24.258;2023-12-20T05:37:51;3.53;;;3.27;;
20627;SDS011;10473;42.734;24.258;2023-12-20T05:40:18;3.60;;;3.33;;
20627;SDS011;10473;42.734;24.258;2023-12-20T05:42:46;2.63;;;1.17;;
20627;SDS011;10473;42.734;24.258;2023-12-20T05:45:14;7.87;;;4.33;;
20627;SDS011;10473;42.734;24.258;2023-12-20T05:47:43;5.27;;;1.37;;
20627;SDS011;10473;42.734;24.258;2023-12-20T05:50:12;2.60;;;2.40;;
20627;SDS011;10473;42.734;24.258;2023-12-20T05:52:41;2.70;;;2.50;;
20627;SDS011;10473;42.734;24.258;2023-12-20T05:55:08;3.97;;;2.60;;
20627;SDS011;10473;42.734;24.258;2023-12-20T05:57:36;1.33;;;1.27;;
20627;SDS011;10473;42.734;24.258;2023-12-20T06:00:04;0.10;;;0.10;;
20627;SDS011;10473;42.734;24.258;2023-12-20T06:02:38;0.60;;;0.60;;
20627;SDS011;10473;42.734;24.258;2023-12-20T06:05:06;2.70;;;1.30;;
20627;SDS011;10473;42.734;24.258;2023-12-20T06:07:35;0.00;;;0.00;;
20627;SDS011;10473;42.734;24.258;2023-12-20T06:10:03;0.00;;;0.00;;
20627;SDS011;10473;42.734;24.258;2023-12-20T06:12:32;1.27;;;0.33;;
20627;SDS011;10473;42.734;24.258;2023-12-20T06:15:01;0.00;;;0.00;;
20627;SDS011;10473;42.734;24.258;2023-12-20T06:17:30;1.13;;;1.03;;
20627;SDS011;10473;42.734;24.258;2023-12-20T06:19:58;2.30;;;1.83;;
20627;SDS011;10473;42.734;24.258;2023-12-20T06:22:26;1.17;;;1.07;;
20627;SDS011;10473;42.734;24.258;2023-12-20T06:24:55;1.47;;;1.37;;
20627;SDS011;10473;42.734;24.258;2023-12-20T06:27:23;2.40;;;1.17;;
20627;SDS011;10473;42.734;24.258;2023-12-20T06:29:51;1.53;;;1.27;;
20627;SDS011;10473;42.734;24.258;2023-12-20T06:32:18;1.30;;;0.97;;
20627;SDS011;10473;42.734;24.258;2023-12-20T06:34:46;5.73;;;3.00;;
20627;SDS011;10473;42.734;24.258;2023-12-20T06:37:14;3.53;;;2.63;;
20627;SDS011;10473;42.734;24.258;2023-12-20T06:39:42;2.80;;;2.60;;
20627;SDS011;10473;42.734;24.258;2023-12-20T06:42:11;2.27;;;1.77;;
20627;SDS011;10473;42.734;24.258;2023-12-20T06:44:39;2.07;;;1.97;;
20627;SDS011;10473;42.734;24.258;2023-12-20T06:47:06;8.67;;;4.00;;
20627;SDS011;10473;42.734;24.258;2023-12-20T06:49:34;3.60;;;3.13;;
20627;SDS011;10473;42.734;24.258;2023-12-20T06:52:02;4.47;;;3.83;;
20627;SDS011;10473;42.734;24.258;2023-12-20T06:54:30;3.17;;;2.97;;
20627;SDS011;10473;42.734;24.258;2023-12-20T06:57:00;6.30;;;3.73;;
20627;SDS011;10473;42.734;24.258;2023-12-20T06:59:30;9.17;;;6.13;;
20627;SDS011;10473;42.734;24.258;2023-12-20T07:01:57;10.10;;;5.07;;
20627;SDS011;10473;42.734;24.258;2023-12-20T07:04:25;6.40;;;4.43;;
20627;SDS011;10473;42.734;24.258;2023-12-20T07:06:53;10.57;;;5.13;;
20627;SDS011;10473;42.734;24.258;2023-12-20T07:09:23;7.17;;;5.10;;
20627;SDS011;10473;42.734;24.258;2023-12-20T07:11:51;10.33;;;7.10;;
20627;SDS011;10473;42.734;24.258;2023-12-20T07:14:19;5.83;;;4.43;;
20627;SDS011;10473;42.734;24.258;2023-12-20T07:16:49;9.03;;;7.97;;
20627;SDS011;10473;42.734;24.258;2023-12-20T07:19:16;6.90;;;6.23;;
20627;SDS011;10473;42.734;24.258;2023-12-20T07:21:44;22.03;;;11.50;;
20627;SDS011;10473;42.734;24.258;2023-12-20T07:24:11;23.57;;;11.90;;
20627;SDS011;10473;42.734;24.258;2023-12-20T07:26:39;12.90;;;8.70;;
20627;SDS011;10473;42.734;24.258;2023-12-20T07:29:07;24.00;;;10.53;;
20627;SDS011;10473;42.734;24.258;2023-12-20T07:31:34;23.37;;;7.27;;
20627;SDS011;10473;42.734;24.258;2023-12-20T07:34:03;7.87;;;4.73;;
20627;SDS011;10473;42.734;24.258;2023-12-20T07:36:31;6.60;;;4.67;;
20627;SDS011;10473;42.734;24.258;2023-12-20T07:38:59;2.00;;;1.90;;
20627;SDS011;10473;42.734;24.258;2023-12-20T07:41:26;3.67;;;3.30;;
20627;SDS011;10473;42.734;24.258;2023-12-20T07:43:54;2.93;;;2.73;;
20627;SDS011;10473;42.734;24.258;2023-12-20T07:46:22;5.77;;;4.00;;
20627;SDS011;10473;42.734;24.258;2023-12-20T07:48:50;9.80;;;5.53;;
20627;SDS011;10473;42.734;24.258;2023-12-20T07:51:19;1.80;;;1.70;;
20627;SDS011;10473;42.734;24.258;2023-12-20T07:53:47;8.50;;;5.10;;
20627;SDS011;10473;42.734;24.258;2023-12-20T07:56:15;5.60;;;4.83;;
20627;SDS011;10473;42.734;24.258;2023-12-20T07:58:43;2.60;;;2.40;;
20627;SDS011;10473;42.734;24.258;2023-12-20T08:01:10;4.00;;;2.40;;
20627;SDS011;10473;42.734;24.258;2023-12-20T08:03:38;3.13;;;2.83;;
20627;SDS011;10473;42.734;24.258;2023-12-20T08:06:06;3.37;;;2.07;;
20627;SDS011;10473;42.734;24.258;2023-12-20T08:08:35;3.53;;;3.20;;
20627;SDS011;10473;42.734;24.258;2023-12-20T08:11:03;1.37;;;1.17;;
20627;SDS011;10473;42.734;24.258;2023-12-20T08:13:30;2.97;;;2.33;;
20627;SDS011;10473;42.734;24.258;2023-12-20T08:15:58;1.83;;;1.43;;
20627;SDS011;10473;42.734;24.258;2023-12-20T08:18:26;1.50;;;1.13;;
20627;SDS011;10473;42.734;24.258;2023-12-20T08:20:53;0.90;;;0.90;;
20627;SDS011;10473;42.734;24.258;2023-12-20T08:23:21;1.10;;;0.93;;
20627;SDS011;10473;42.734;24.258;2023-12-20T08:25:51;1.00;;;1.00;;
20627;SDS011;10473;42.734;24.258;2023-12-20T08:28:18;1.07;;;0.93;;
20627;SDS011;10473;42.734;24.258;2023-12-20T08:30:46;1.27;;;1.10;;
20627;SDS011;10473;42.734;24.258;2023-12-20T08:33:14;1.83;;;0.80;;
20627;SDS011;10473;42.734;24.258;2023-12-20T08:35:41;1.07;;;1.00;;
20627;SDS011;10473;42.734;24.258;2023-12-20T08:38:09;3.03;;;1.47;;
20627;SDS011;10473;42.734;24.258;2023-12-20T08:40:38;2.10;;;1.70;;
20627;SDS011;10473;42.734;24.258;2023-12-20T08:43:08;0.13;;;0.13;;
20627;SDS011;10473;42.734;24.258;2023-12-20T08:45:35;0.60;;;0.60;;
20627;SDS011;10473;42.734;24.258;2023-12-20T08:48:03;0.43;;;0.43;;
20627;SDS011;10473;42.734;24.258;2023-12-20T08:50:31;0.83;;;0.67;;
20627;SDS011;10473;42.734;24.258;2023-12-20T08:52:59;0.60;;;0.40;;
20627;SDS011;10473;42.734;24.258;2023-12-20T08:55:27;0.60;;;0.60;;
20627;SDS011;10473;42.734;24.258;2023-12-20T08:57:56;0.30;;;0.30;;
20627;SDS011;10473;42.734;24.258;2023-12-20T09:00:25;1.10;;;0.77;;
20627;SDS011;10473;42.734;24.258;2023-12-20T09:02:53;0.33;;;0.33;;
20627;SDS011;10473;42.734;24.258;2023-12-20T09:05:21;1.07;;;0.57;;
20627;SDS011;10473;42.734;24.258;2023-12-20T09:07:49;0.20;;;0.20;;
20627;SDS011;10473;42.734;24.258;2023-12-20T09:10:17;0.50;;;0.50;;
20627;SDS011;10473;42.734;24.258;2023-12-20T09:12:48;0.60;;;0.60;;
20627;SDS011;10473;42.734;24.258;2023-12-20T09:15:15;0.30;;;0.30;;
20627;SDS011;10473;42.734;24.258;2023-12-20T09:17:45;0.47;;;0.47;;
20627;SDS011;10473;42.734;24.258;2023-12-20T09:20:13;0.27;;;0.27;;
20627;SDS011;10473;42.734;24.258;2023-12-20T09:22:40;0.83;;;0.37;;
20627;SDS011;10473;42.734;24.258;2023-12-20T09:25:09;1.00;;;0.90;;
20627;SDS011;10473;42.734;24.258;2023-12-20T09:27:38;0.50;;;0.50;;
20627;SDS011;10473;42.734;24.258;2023-12-20T09:30:06;0.70;;;0.70;;
20627;SDS011;10473;42.734;24.258;2023-12-20T09:32:34;0.23;;;0.23;;
20627;SDS011;10473;42.734;24.258;2023-12-20T09:35:04;0.40;;;0.40;;
20627;SDS011;10473;42.734;24.258;2023-12-20T09:37:32;0.90;;;0.90;;
20627;SDS011;10473;42.734;24.258;2023-12-20T09:40:00;0.30;;;0.30;;
20627;SDS011;10473;42.734;24.258;2023-12-20T09:42:29;0.37;;;0.37;;
20627;SDS011;10473;42.734;24.258;2023-12-20T09:45:06;0.40;;;0.40;;
20627;SDS011;10473;42.734;24.258;2023-12-20T09:47:36;0.30;;;0.30;;
20627;SDS011;10473;42.734;24.258;2023-12-20T09:50:05;0.20;;;0.20;;
20627;SDS011;10473;42.734;24.258;2023-12-20T09:52:34;0.20;;;0.20;;
20627;SDS011;10473;42.734;24.258;2023-12-20T09:55:04;3.30;;;0.70;;
20627;SDS011;10473;42.734;24.258;2023-12-20T09:57:33;0.30;;;0.30;;
20627;SDS011;10473;42.734;24.258;2023-12-20T10:00:01;0.97;;;0.80;;
20627;SDS011;10473;42.734;24.258;2023-12-20T10:02:38;2.03;;;1.30;;
20627;SDS011;10473;42.734;24.258;2023-12-20T10:05:13;0.70;;;0.63;;
20627;SDS011;10473;42.734;24.258;2023-12-20T10:07:45;0.43;;;0.43;;
20627;SDS011;10473;42.734;24.258;2023-12-20T10:10:13;1.43;;;0.77;;
20627;SDS011;10473;42.734;24.258;2023-12-20T10:12:41;0.50;;;0.50;;
20627;SDS011;10473;42.734;24.258;2023-12-20T10:15:28;0.87;;;0.77;;
20627;SDS011;10473;42.734;24.258;2023-12-20T10:17:56;0.40;;;0.40;;
20627;SDS011;10473;42.734;24.258;2023-12-20T10:20:26;0.40;;;0.40;;
20627;SDS011;10473;42.734;24.258;2023-12-20T10:22:54;0.87;;;0.87;;
20627;SDS011;10473;42.734;24.258;2023-12-20T10:25:22;0.60;;;0.60;;
20627;SDS011;10473;42.734;24.258;2023-12-20T10:28:07;0.30;;;0.30;;
20627;SDS011;10473;42.734;24.258;2023-12-20T10:30:36;1.47;;;0.53;;
20627;SDS011;10473;42.734;24.258;2023-12-20T10:33:05;0.80;;;0.63;;
20627;SDS011;10473;42.734;24.258;2023-12-20T10:35:35;1.33;;;1.23;;
20627;SDS011;10473;42.734;24.258;2023-12-20T10:38:03;1.03;;;1.03;;
20627;SDS011;10473;42.734;24.258;2023-12-20T10:40:34;0.37;;;0.37;;
20627;SDS011;10473;42.734;24.258;2023-12-20T10:43:04;0.60;;;0.53;;
20627;SDS011;10473;42.734;24.258;2023-12-20T10:45:31;1.50;;;0.30;;
20627;SDS011;10473;42.734;24.258;2023-12-20T10:47:59;0.30;;;0.30;;
20627;SDS011;10473;42.734;24.258;2023-12-20T10:50:29;1.03;;;0.40;;
20627;SDS011;10473;42.734;24.258;2023-12-20T10:52:59;2.00;;;0.70;;
20627;SDS011;10473;42.734;24.258;2023-12-20T10:55:27;0.50;;;0.50;;
20627;SDS011;10473;42.734;24.258;2023-12-20T10:57:57;0.43;;;0.43;;
20627;SDS011;10473;42.734;24.258;2023-12-20T11:00:28;1.38;;;1.00;;
20627;SDS011;10473;42.734;24.258;2023-12-20T11:02:57;0.63;;;0.55;;
20627;SDS011;10473;42.734;24.258;2023-12-20T11:05:32;0.50;;;0.50;;
20627;SDS011;10473;42.734;24.258;2023-12-20T11:08:09;0.80;;;0.80;;
20627;SDS011;10473;42.734;24.258;2023-12-20T11:10:47;2.45;;;1.17;;
20627;SDS011;10473;42.734;24.258;2023-12-20T11:13:23;0.40;;;0.40;;
20627;SDS011;10473;42.734;24.258;2023-12-20T11:15:57;1.15;;;0.50;;
20627;SDS011;10473;42.734;24.258;2023-12-20T11:18:28;0.28;;;0.28;;
20627;SDS011;10473;42.734;24.258;2023-12-20T11:21:00;1.15;;;0.75;;
20627;SDS011;10473;42.734;24.258;2023-12-20T11:23:30;0.98;;;0.77;;
20627;SDS011;10473;42.734;24.258;2023-12-20T11:26:00;1.55;;;1.45;;
20627;SDS011;10473;42.734;24.258;2023-12-20T11:28:30;0.40;;;0.40;;
20627;SDS011;10473;42.734;24.258;2023-12-20T11:30:58;1.25;;;1.05;;
20627;SDS011;10473;42.734;24.258;2023-12-20T11:33:29;1.60;;;1.45;;
20627;SDS011;10473;42.734;24.258;2023-12-20T11:35:58;0.35;;;0.35;;
20627;SDS011;10473;42.734;24.258;2023-12-20T11:38:26;0.57;;;0.55;;
20627;SDS011;10473;42.734;24.258;2023-12-20T11:40:56;1.65;;;0.85;;
20627;SDS011;10473;42.734;24.258;2023-12-20T11:43:30;0.57;;;0.57;;
20627;SDS011;10473;42.734;24.258;2023-12-20T11:46:02;0.20;;;0.20;;
20627;SDS011;10473;42.734;24.258;2023-12-20T11:48:31;0.40;;;0.40;;
20627;SDS011;10473;42.734;24.258;2023-12-20T11:50:59;0.50;;;0.50;;
20627;SDS011;10473;42.734;24.258;2023-12-20T11:53:29;0.30;;;0.30;;
20627;SDS011;10473;42.734;24.258;2023-12-20T11:55:58;0.40;;;0.40;;
20627;SDS011;10473;42.734;24.258;2023-12-20T11:58:26;0.60;;;0.60;;
20627;SDS011;10473;42.734;24.258;2023-12-20T12:00:54;1.50;;;1.40;;
20627;SDS011;10473;42.734;24.258;2023-12-20T12:03:22;0.75;;;0.50;;
20627;SDS011;10473;42.734;24.258;2023-12-20T12:05:50;0.30;;;0.30;;
20627;SDS011;10473;42.734;24.258;2023-12-20T12:08:18;0.50;;;0.32;;
20627;SDS011;10473;42.734;24.258;2023-12-20T12:10:46;0.30;;;0.30;;
20627;SDS011;10473;42.734;24.258;2023-12-20T12:13:15;0.50;;;0.50;;
20627;SDS011;10473;42.734;24.258;2023-12-20T12:15:43;0.80;;;0.80;;
20627;SDS011;10473;42.734;24.258;2023-12-20T12:18:11;0.80;;;0.80;;
20627;SDS011;10473;42.734;24.258;2023-12-20T12:20:42;0.60;;;0.52;;
20627;SDS011;10473;42.734;24.258;2023-12-20T12:23:10;0.75;;;0.50;;
20627;SDS011;10473;42.734;24.258;2023-12-20T12:25:38;0.38;;;0.38;;
20627;SDS011;10473;42.734;24.258;2023-12-20T12:28:06;0.43;;;0.43;;
20627;SDS011;10473;42.734;24.258;2023-12-20T12:30:35;1.00;;;0.90;;
20627;SDS011;10473;42.734;24.258;2023-12-20T12:33:03;0.30;;;0.30;;
20627;SDS011;10473;42.734;24.258;2023-12-20T12:35:31;0.40;;;0.40;;
20627;SDS011;10473;42.734;24.258;2023-12-20T12:37:59;0.30;;;0.30;;
20627;SDS011;10473;42.734;24.258;2023-12-20T12:40:28;0.30;;;0.30;;
20627;SDS011;10473;42.734;24.258;2023-12-20T12:42:56;1.48;;;0.50;;
20627;SDS011;10473;42.734;24.258;2023-12-20T12:45:24;0.40;;;0.40;;
20627;SDS011;10473;42.734;24.258;2023-12-20T12:47:54;0.27;;;0.27;;
20627;SDS011;10473;42.734;24.258;2023-12-20T12:50:22;0.20;;;0.20;;
20627;SDS011;10473;42.734;24.258;2023-12-20T12:52:49;0.87;;;0.50;;
20627;SDS011;10473;42.734;24.258;2023-12-20T12:55:17;1.00;;;0.53;;
20627;SDS011;10473;42.734;24.258;2023-12-20T12:57:44;1.27;;;0.80;;
20627;SDS011;10473;42.734;24.258;2023-12-20T13:00:12;1.27;;;1.00;;
20627;SDS011;10473;42.734;24.258;2023-12-20T13:02:40;0.33;;;0.33;;
20627;SDS011;10473;42.734;24.258;2023-12-20T13:05:10;0.63;;;0.63;;
20627;SDS011;10473;42.734;24.258;2023-12-20T13:07:38;1.23;;;0.70;;
20627;SDS011;10473;42.734;24.258;2023-12-20T13:10:06;0.40;;;0.40;;
20627;SDS011;10473;42.734;24.258;2023-12-20T13:12:34;0.87;;;0.87;;
20627;SDS011;10473;42.734;24.258;2023-12-20T13:15:01;0.43;;;0.40;;
20627;SDS011;10473;42.734;24.258;2023-12-20T13:17:31;1.80;;;0.97;;
20627;SDS011;10473;42.734;24.258;2023-12-20T13:19:58;1.83;;;1.73;;
20627;SDS011;10473;42.734;24.258;2023-12-20T13:22:27;4.40;;;2.70;;
20627;SDS011;10473;42.734;24.258;2023-12-20T13:24:55;2.63;;;2.30;;
20627;SDS011;10473;42.734;24.258;2023-12-20T13:27:23;1.23;;;1.17;;
20627;SDS011;10473;42.734;24.258;2023-12-20T13:29:50;1.50;;;1.40;;
20627;SDS011;10473;42.734;24.258;2023-12-20T13:32:18;1.27;;;1.17;;
20627;SDS011;10473;42.734;24.258;2023-12-20T13:34:46;1.30;;;1.13;;
20627;SDS011;10473;42.734;24.258;2023-12-20T13:37:16;2.90;;;1.40;;
20627;SDS011;10473;42.734;24.258;2023-12-20T13:39:45;0.83;;;0.83;;
20627;SDS011;10473;42.734;24.258;2023-12-20T13:42:13;0.47;;;0.47;;
20627;SDS011;10473;42.734;24.258;2023-12-20T13:44:42;1.20;;;1.10;;
20627;SDS011;10473;42.734;24.258;2023-12-20T13:47:10;2.03;;;1.03;;
20627;SDS011;10473;42.734;24.258;2023-12-20T13:49:38;1.40;;;1.30;;
20627;SDS011;10473;42.734;24.258;2023-12-20T13:52:05;5.00;;;1.90;;
20627;SDS011;10473;42.734;24.258;2023-12-20T13:54:33;6.87;;;6.17;;
20627;SDS011;10473;42.734;24.258;2023-12-20T13:57:02;1.03;;;0.93;;
20627;SDS011;10473;42.734;24.258;2023-12-20T13:59:30;0.40;;;0.40;;
20627;SDS011;10473;42.734;24.258;2023-12-20T14:01:58;0.30;;;0.30;;
20627;SDS011;10473;42.734;24.258;2023-12-20T14:04:27;0.57;;;0.57;;
20627;SDS011;10473;42.734;24.258;2023-12-20T14:06:54;2.70;;;1.70;;
20627;SDS011;10473;42.734;24.258;2023-12-20T14:09:22;0.83;;;0.60;;
20627;SDS011;10473;42.734;24.258;2023-12-20T14:11:50;4.17;;;3.83;;
20627;SDS011;10473;42.734;24.258;2023-12-20T14:14:19;5.93;;;4.30;;
20627;SDS011;10473;42.734;24.258;2023-12-20T14:16:47;6.23;;;2.67;;
20627;SDS011;10473;42.734;24.258;2023-12-20T14:19:14;2.90;;;2.47;;
20627;SDS011;10473;42.734;24.258;2023-12-20T14:21:43;6.63;;;2.33;;
20627;SDS011;10473;42.734;24.258;2023-12-20T14:24:12;1.43;;;1.33;;
20627;SDS011;10473;42.734;24.258;2023-12-20T14:26:40;2.23;;;1.47;;
20627;SDS011;10473;42.734;24.258;2023-12-20T14:29:08;1.60;;;1.50;;
20627;SDS011;10473;42.734;24.258;2023-12-20T14:31:37;4.93;;;3.13;;
20627;SDS011;10473;42.734;24.258;2023-12-20T14:34:06;4.80;;;3.17;;
20627;SDS011;10473;42.734;24.258;2023-12-20T14:36:34;5.40;;;2.77;;
20627;SDS011;10473;42.734;24.258;2023-12-20T14:39:02;8.37;;;4.90;;
20627;SDS011;10473;42.734;24.258;2023-12-20T14:41:30;2.37;;;2.17;;